Time;durP1;ratioP1;P1;durP2;ratioP2;P2;SDS_P1;SDS_P2;PMS_P1;PMS_P2;Temp;Humidity;BMP_temperature;BMP_pressure;BME280_temperature;BME280_humidity;BME280_pressure;Samples;Min_cycle;Max_cycle;Signal;HPM_P1;HPM_P2
2022/11/19 00:00:21;;;;;;;24.70;12.80;;;;;;;;;;5014593;28;20180;-81
2022/11/19 00:02:48;;;;;;;18.67;10.77;;;;;;;;;;5011749;28;20183;-80
2022/11/19 00:05:14;;;;;;;20.63;11.67;;;;;;;;;;5009158;28;20289;-80
2022/11/19 00:07:39;;;;;;;21.80;11.83;;;;;;;;;;5008345;28;20203;-80
2022/11/19 00:10:04;;;;;;;19.87;11.50;;;;;;;;;;5021325;28;20684;-80
2022/11/19 00:15:13;;;;;;;19.57;12.13;;;;;;;;;;5013773;28;20333;-80
2022/11/19 00:17:39;;;;;;;18.20;11.00;;;;;;;;;;4994182;28;20226;-80
2022/11/19 00:20:04;;;;;;;18.60;11.13;;;;;;;;;;4998889;28;20175;-79
2022/11/19 00:22:29;;;;;;;23.80;11.93;;;;;;;;;;4993710;28;20174;-79
2022/11/19 00:24:54;;;;;;;24.70;11.70;;;;;;;;;;5014346;28;20233;-80
2022/11/19 00:27:19;;;;;;;24.03;13.73;;;;;;;;;;5013645;28;20226;-80
2022/11/19 00:29:45;;;;;;;22.53;11.90;;;;;;;;;;5004374;28;20187;-80
2022/11/19 00:32:10;;;;;;;25.60;12.80;;;;;;;;;;4995871;28;20207;-80
2022/11/19 00:34:35;;;;;;;22.30;11.83;;;;;;;;;;4995528;28;20595;-80
2022/11/19 00:37:00;;;;;;;20.87;13.43;;;;;;;;;;5012118;28;20575;-80
2022/11/19 00:39:25;;;;;;;21.63;12.43;;;;;;;;;;4991862;28;20180;-80
2022/11/19 00:41:50;;;;;;;23.57;12.47;;;;;;;;;;4994755;28;20233;-80
2022/11/19 00:44:16;;;;;;;21.30;12.80;;;;;;;;;;5011783;28;20687;-80
2022/11/19 00:46:41;;;;;;;24.77;13.30;;;;;;;;;;5012912;28;20195;-80
2022/11/19 00:49:06;;;;;;;25.83;13.33;;;;;;;;;;4996081;28;20190;-80
2022/11/19 00:51:31;;;;;;;21.03;12.07;;;;;;;;;;5009285;28;20191;-80
2022/11/19 00:53:56;;;;;;;20.07;12.23;;;;;;;;;;5008670;28;20230;-79
2022/11/19 00:56:23;;;;;;;18.90;13.10;;;;;;;;;;5011373;28;20210;-80
2022/11/19 00:58:49;;;;;;;20.23;12.17;;;;;;;;;;5013923;28;20240;-80
2022/11/19 01:01:14;;;;;;;20.87;10.83;;;;;;;;;;5010405;28;20657;-80
2022/11/19 01:03:40;;;;;;;19.30;12.07;;;;;;;;;;5013710;28;20245;-80
2022/11/19 01:06:06;;;;;;;25.57;13.50;;;;;;;;;;4991236;28;20581;-80
2022/11/19 01:08:31;;;;;;;22.10;12.57;;;;;;;;;;4996913;28;20186;-79
2022/11/19 01:11:07;;;;;;;20.80;11.90;;;;;;;;;;4993095;28;20187;-80
2022/11/19 01:13:35;;;;;;;21.17;12.10;;;;;;;;;;4989877;28;20190;-80
2022/11/19 01:16:13;;;;;;;21.90;13.20;;;;;;;;;;4992032;28;20633;-81
2022/11/19 01:18:38;;;;;;;21.60;12.80;;;;;;;;;;5011987;28;20348;-80
2022/11/19 01:21:04;;;;;;;19.20;12.43;;;;;;;;;;4988687;28;20665;-79
2022/11/19 01:23:30;;;;;;;22.80;12.23;;;;;;;;;;4998129;28;20182;-80
2022/11/19 01:25:55;;;;;;;25.67;11.83;;;;;;;;;;5009528;28;20210;-80
2022/11/19 01:28:20;;;;;;;18.53;11.47;;;;;;;;;;5012997;28;20560;-78
2022/11/19 01:30:46;;;;;;;20.10;11.70;;;;;;;;;;5010884;28;20191;-80
2022/11/19 01:33:11;;;;;;;19.57;12.80;;;;;;;;;;5013841;28;20174;-81
2022/11/19 01:35:37;;;;;;;21.40;12.63;;;;;;;;;;5012319;28;20757;-78
2022/11/19 01:38:02;;;;;;;23.70;12.33;;;;;;;;;;5001849;28;20242;-78
2022/11/19 01:40:28;;;;;;;18.53;10.17;;;;;;;;;;5011913;28;20266;-79
2022/11/19 01:42:54;;;;;;;22.03;11.40;;;;;;;;;;5017163;28;20184;-79
2022/11/19 01:45:25;;;;;;;24.07;11.83;;;;;;;;;;5015271;28;20186;-78
2022/11/19 01:47:51;;;;;;;22.13;11.47;;;;;;;;;;5009359;28;20225;-79
2022/11/19 01:50:16;;;;;;;19.20;11.53;;;;;;;;;;5012751;28;20542;-79
2022/11/19 01:52:42;;;;;;;24.50;12.83;;;;;;;;;;5014902;28;20174;-79
2022/11/19 01:55:07;;;;;;;22.37;12.43;;;;;;;;;;5013170;28;20198;-78
2022/11/19 01:57:33;;;;;;;21.47;13.83;;;;;;;;;;4998531;28;20633;-79
2022/11/19 01:59:58;;;;;;;21.73;13.47;;;;;;;;;;5013495;28;20178;-79
2022/11/19 02:02:24;;;;;;;19.37;12.03;;;;;;;;;;4992972;28;20186;-79
2022/11/19 02:04:50;;;;;;;20.87;12.17;;;;;;;;;;5001916;28;20210;-79
2022/11/19 02:07:16;;;;;;;20.27;12.40;;;;;;;;;;4987773;28;20199;-79
2022/11/19 02:09:41;;;;;;;21.20;11.67;;;;;;;;;;5012914;28;20183;-79
2022/11/19 02:12:06;;;;;;;21.90;13.23;;;;;;;;;;5012879;28;20191;-79
2022/11/19 02:14:48;;;;;;;19.27;12.23;;;;;;;;;;5014238;28;20610;-79
2022/11/19 02:17:21;;;;;;;19.43;12.47;;;;;;;;;;5016251;28;20224;-79
2022/11/19 02:19:59;;;;;;;21.17;12.73;;;;;;;;;;5017487;28;20180;-79
2022/11/19 02:22:25;;;;;;;21.30;13.10;;;;;;;;;;4994067;28;20190;-79
2022/11/19 02:24:50;;;;;;;22.67;13.90;;;;;;;;;;5003961;28;20190;-79
2022/11/19 02:27:15;;;;;;;22.40;13.73;;;;;;;;;;5018978;28;20643;-78
2022/11/19 02:29:55;;;;;;;17.57;12.20;;;;;;;;;;5008537;28;20724;-79
2022/11/19 02:32:24;;;;;;;24.30;12.83;;;;;;;;;;4999032;28;20187;-79
2022/11/19 02:34:49;;;;;;;21.80;12.37;;;;;;;;;;5005824;28;20209;-78
2022/11/19 02:37:24;;;;;;;19.60;12.70;;;;;;;;;;5026618;28;20198;-78
2022/11/19 02:39:49;;;;;;;19.87;12.57;;;;;;;;;;5022122;28;20241;-79
2022/11/19 02:42:40;;;;;;;18.60;12.60;;;;;;;;;;5017763;28;20175;-79
2022/11/19 02:45:11;;;;;;;20.73;12.00;;;;;;;;;;5019516;28;20214;-78
2022/11/19 02:47:59;;;;;;;24.17;12.93;;;;;;;;;;5016185;28;20199;-79
2022/11/19 02:50:33;;;;;;;21.73;13.33;;;;;;;;;;5001069;28;20186;-79
2022/11/19 02:52:58;;;;;;;21.47;13.03;;;;;;;;;;4996398;28;20711;-78
2022/11/19 02:55:24;;;;;;;22.70;13.27;;;;;;;;;;4997617;28;20289;-78
2022/11/19 02:57:57;;;;;;;23.60;12.97;;;;;;;;;;5016994;28;20578;-79
2022/11/19 03:06:05;;;;;;;20.93;13.10;;;;;;;;;;5012377;28;20209;-78
2022/11/19 03:08:31;;;;;;;25.43;13.00;;;;;;;;;;5018308;28;20189;-78
2022/11/19 03:11:08;;;;;;;20.17;12.40;;;;;;;;;;4994103;28;20188;-78
2022/11/19 03:16:41;;;;;;;25.03;13.93;;;;;;;;;;5016169;28;20276;-78
2022/11/19 03:19:09;;;;;;;20.77;14.40;;;;;;;;;;5012045;28;20649;-78
2022/11/19 03:21:39;;;;;;;19.67;12.93;;;;;;;;;;4999287;28;20186;-79
2022/11/19 03:24:07;;;;;;;23.40;13.30;;;;;;;;;;4999886;28;20668;-78
2022/11/19 03:26:34;;;;;;;21.63;13.20;;;;;;;;;;5014025;28;20705;-79
2022/11/19 03:29:02;;;;;;;27.83;14.57;;;;;;;;;;5019590;28;20186;-79
2022/11/19 03:31:28;;;;;;;24.77;14.60;;;;;;;;;;5017356;28;20190;-79
2022/11/19 03:33:56;;;;;;;25.30;14.97;;;;;;;;;;5000264;28;20304;-78
2022/11/19 03:36:26;;;;;;;22.77;14.70;;;;;;;;;;5015472;28;20524;-79
2022/11/19 03:38:54;;;;;;;23.40;13.97;;;;;;;;;;5006069;28;20183;-78
2022/11/19 03:41:21;;;;;;;24.07;14.17;;;;;;;;;;5012134;28;20261;-79
2022/11/19 03:43:50;;;;;;;23.13;14.90;;;;;;;;;;4999732;28;20178;-79
2022/11/19 03:46:17;;;;;;;24.73;14.13;;;;;;;;;;4999675;28;20202;-79
2022/11/19 03:48:44;;;;;;;22.80;12.67;;;;;;;;;;5016455;28;20177;-79
2022/11/19 03:51:12;;;;;;;25.33;16.53;;;;;;;;;;5001061;28;20179;-79
2022/11/19 03:53:37;;;;;;;25.47;14.83;;;;;;;;;;5016119;28;21666;-79
2022/11/19 03:56:03;;;;;;;26.87;15.27;;;;;;;;;;5016103;28;20207;-79
2022/11/19 03:58:29;;;;;;;27.03;15.07;;;;;;;;;;5018269;28;20180;-79
2022/11/19 04:00:54;;;;;;;27.03;14.93;;;;;;;;;;5001948;28;20668;-79
2022/11/19 04:03:19;;;;;;;23.90;15.33;;;;;;;;;;5016973;28;20637;-79
2022/11/19 04:05:45;;;;;;;24.00;15.50;;;;;;;;;;5017116;28;20199;-79
2022/11/19 04:08:10;;;;;;;27.07;15.60;;;;;;;;;;5018858;28;20183;-79
2022/11/19 04:10:35;;;;;;;26.57;15.67;;;;;;;;;;5014302;28;20571;-79
2022/11/19 04:13:01;;;;;;;29.17;16.83;;;;;;;;;;4985919;28;20608;-79
2022/11/19 04:15:26;;;;;;;29.90;17.23;;;;;;;;;;4996240;28;20672;-79
2022/11/19 04:17:51;;;;;;;27.53;16.47;;;;;;;;;;5012406;28;20187;-79
2022/11/19 04:20:16;;;;;;;27.73;16.87;;;;;;;;;;5011118;28;20175;-79
2022/11/19 04:22:42;;;;;;;29.33;17.30;;;;;;;;;;5013400;28;20183;-79
2022/11/19 04:25:07;;;;;;;30.53;17.97;;;;;;;;;;5015849;28;20280;-79
2022/11/19 04:27:32;;;;;;;34.70;19.20;;;;;;;;;;5015358;28;20293;-79
2022/11/19 04:29:58;;;;;;;26.17;14.37;;;;;;;;;;5018943;28;20557;-79
2022/11/19 04:32:23;;;;;;;28.67;16.83;;;;;;;;;;5013991;28;20186;-79
2022/11/19 04:34:48;;;;;;;29.83;17.50;;;;;;;;;;4995697;28;20203;-79
2022/11/19 04:37:13;;;;;;;33.07;18.07;;;;;;;;;;5007935;28;20226;-79
2022/11/19 04:39:38;;;;;;;29.83;17.87;;;;;;;;;;4992483;28;20237;-79
2022/11/19 04:42:04;;;;;;;28.73;18.20;;;;;;;;;;4992935;28;20345;-79
2022/11/19 04:44:29;;;;;;;31.50;17.80;;;;;;;;;;4993292;28;20179;-79
2022/11/19 04:46:54;;;;;;;27.93;16.87;;;;;;;;;;5011292;28;20207;-79
2022/11/19 04:49:19;;;;;;;26.67;16.77;;;;;;;;;;4997767;28;20186;-79
2022/11/19 04:51:45;;;;;;;26.10;16.53;;;;;;;;;;5014076;28;20250;-79
2022/11/19 04:54:10;;;;;;;30.80;17.67;;;;;;;;;;5014882;28;20565;-80
2022/11/19 04:56:35;;;;;;;26.80;17.23;;;;;;;;;;5013361;28;20198;-80
2022/11/19 04:59:01;;;;;;;30.03;17.07;;;;;;;;;;5013393;28;20242;-79
2022/11/19 05:01:26;;;;;;;28.40;17.17;;;;;;;;;;4997779;28;20183;-79
2022/11/19 05:03:51;;;;;;;29.43;16.90;;;;;;;;;;5014454;28;20187;-79
2022/11/19 05:06:16;;;;;;;27.07;16.13;;;;;;;;;;5014735;28;20742;-79
2022/11/19 05:08:42;;;;;;;28.47;16.40;;;;;;;;;;5018912;28;20183;-79
2022/11/19 05:11:07;;;;;;;32.87;16.93;;;;;;;;;;4997050;28;20595;-79
2022/11/19 05:13:32;;;;;;;31.30;17.67;;;;;;;;;;5005400;28;20578;-79
2022/11/19 05:15:57;;;;;;;30.33;17.57;;;;;;;;;;5014213;28;20230;-80
2022/11/19 05:18:23;;;;;;;25.97;16.07;;;;;;;;;;5014585;28;20559;-79
2022/11/19 05:20:48;;;;;;;24.73;15.73;;;;;;;;;;4994154;28;20205;-79
2022/11/19 05:23:13;;;;;;;30.80;16.00;;;;;;;;;;5016322;28;20712;-79
2022/11/19 05:25:38;;;;;;;29.43;15.77;;;;;;;;;;4998419;28;20638;-79
2022/11/19 05:28:03;;;;;;;26.77;16.20;;;;;;;;;;4997624;28;20193;-79
2022/11/19 05:30:29;;;;;;;25.33;15.27;;;;;;;;;;5016052;28;20528;-79
2022/11/19 05:32:54;;;;;;;27.20;16.50;;;;;;;;;;5016008;28;20202;-79
2022/11/19 05:35:19;;;;;;;24.43;16.00;;;;;;;;;;4995440;28;20199;-78
2022/11/19 05:37:47;;;;;;;28.03;16.43;;;;;;;;;;5015674;28;20199;-79
2022/11/19 05:40:12;;;;;;;29.57;15.37;;;;;;;;;;5013686;28;20175;-80
2022/11/19 05:42:37;;;;;;;30.83;16.37;;;;;;;;;;5016255;28;20244;-79
2022/11/19 05:45:03;;;;;;;25.93;17.13;;;;;;;;;;5013033;28;20206;-79
2022/11/19 05:47:28;;;;;;;25.80;16.83;;;;;;;;;;5011489;28;20205;-78
2022/11/19 05:49:53;;;;;;;27.70;15.50;;;;;;;;;;5014318;28;20262;-79
2022/11/19 05:52:18;;;;;;;31.10;17.63;;;;;;;;;;5013388;28;20220;-79
2022/11/19 05:54:44;;;;;;;30.17;16.87;;;;;;;;;;5014515;28;20213;-79
2022/11/19 05:57:09;;;;;;;28.87;17.87;;;;;;;;;;4992556;28;20708;-79
2022/11/19 05:59:34;;;;;;;26.00;15.50;;;;;;;;;;5000114;28;20171;-79
2022/11/19 06:01:59;;;;;;;27.77;16.80;;;;;;;;;;5012100;28;20209;-78
2022/11/19 06:04:24;;;;;;;27.50;15.47;;;;;;;;;;5012257;28;20175;-79
2022/11/19 06:06:50;;;;;;;29.73;16.40;;;;;;;;;;5011859;28;20195;-80
2022/11/19 06:09:15;;;;;;;25.77;16.07;;;;;;;;;;5005382;28;20543;-79
2022/11/19 06:11:49;;;;;;;24.67;14.83;;;;;;;;;;5009836;28;20261;-79
2022/11/19 06:14:33;;;;;;;28.73;16.50;;;;;;;;;;4999946;28;20250;-79
2022/11/19 06:16:59;;;;;;;26.93;15.43;;;;;;;;;;4995438;28;20199;-79
2022/11/19 06:19:24;;;;;;;26.83;14.47;;;;;;;;;;5013800;28;20327;-79
2022/11/19 06:21:50;;;;;;;28.07;16.03;;;;;;;;;;5000142;28;20174;-79
2022/11/19 06:24:15;;;;;;;29.73;16.83;;;;;;;;;;4994372;28;20722;-79
2022/11/19 06:26:40;;;;;;;26.97;14.67;;;;;;;;;;4994407;28;20298;-78
2022/11/19 06:29:06;;;;;;;26.63;15.50;;;;;;;;;;4999403;28;20175;-79
2022/11/19 06:31:31;;;;;;;28.63;16.70;;;;;;;;;;4994156;28;20527;-79
2022/11/19 06:33:57;;;;;;;30.93;17.33;;;;;;;;;;5011608;28;20182;-78
2022/11/19 06:36:22;;;;;;;26.67;16.37;;;;;;;;;;5012927;28;20203;-79
2022/11/19 06:38:48;;;;;;;27.17;16.67;;;;;;;;;;5013164;28;20174;-79
2022/11/19 06:41:13;;;;;;;27.53;16.57;;;;;;;;;;5011389;28;20175;-79
2022/11/19 06:43:38;;;;;;;29.43;16.33;;;;;;;;;;5010733;28;20304;-79
2022/11/19 06:46:03;;;;;;;28.93;15.47;;;;;;;;;;5022428;28;20207;-78
2022/11/19 06:48:28;;;;;;;28.70;16.90;;;;;;;;;;5012905;28;20190;-79
2022/11/19 06:50:54;;;;;;;28.10;16.77;;;;;;;;;;5032024;28;20197;-79
2022/11/19 06:53:19;;;;;;;29.90;17.00;;;;;;;;;;5033238;28;20226;-78
2022/11/19 06:55:44;;;;;;;29.17;17.17;;;;;;;;;;5033192;28;20233;-78
2022/11/19 06:58:09;;;;;;;30.20;15.30;;;;;;;;;;5030090;28;20207;-79
2022/11/19 07:00:35;;;;;;;29.00;15.60;;;;;;;;;;5020402;28;20255;-79
2022/11/19 07:03:00;;;;;;;26.47;15.93;;;;;;;;;;5024002;28;20205;-79
2022/11/19 07:05:25;;;;;;;27.57;15.40;;;;;;;;;;5019893;28;20210;-78
2022/11/19 07:07:50;;;;;;;28.43;15.80;;;;;;;;;;5011111;28;20215;-78
2022/11/19 07:10:16;;;;;;;25.33;14.30;;;;;;;;;;5020323;28;20212;-79
2022/11/19 07:12:41;;;;;;;26.73;15.27;;;;;;;;;;5040953;28;20294;-78
2022/11/19 07:15:07;;;;;;;27.63;16.60;;;;;;;;;;5039775;28;20238;-79
2022/11/19 07:17:32;;;;;;;25.57;14.83;;;;;;;;;;5030719;28;20208;-78
2022/11/19 07:19:57;;;;;;;28.93;16.40;;;;;;;;;;5036716;28;20199;-80
2022/11/19 07:22:22;;;;;;;28.17;16.27;;;;;;;;;;5029008;28;20273;-78
2022/11/19 07:24:47;;;;;;;26.00;15.67;;;;;;;;;;4996522;28;20206;-78
2022/11/19 07:27:14;;;;;;;29.50;17.20;;;;;;;;;;5019233;28;20210;-79
2022/11/19 07:29:39;;;;;;;26.77;15.83;;;;;;;;;;5018133;28;20210;-78
2022/11/19 07:32:04;;;;;;;25.37;14.80;;;;;;;;;;5001138;28;20175;-78
2022/11/19 07:34:29;;;;;;;26.27;15.00;;;;;;;;;;5018793;28;20193;-78
2022/11/19 07:36:54;;;;;;;25.63;15.43;;;;;;;;;;5000157;28;20587;-79
2022/11/19 07:39:20;;;;;;;28.57;15.60;;;;;;;;;;4998478;28;20179;-80
2022/11/19 07:44:28;;;;;;;24.53;13.87;;;;;;;;;;5012238;28;20585;-79
2022/11/19 07:46:54;;;;;;;26.00;15.17;;;;;;;;;;5013893;28;20199;-79
2022/11/19 07:49:19;;;;;;;25.20;13.83;;;;;;;;;;5014365;28;20180;-79
2022/11/19 07:51:44;;;;;;;25.27;14.27;;;;;;;;;;4984573;28;20182;-78
2022/11/19 07:54:10;;;;;;;26.07;15.07;;;;;;;;;;5004981;28;20175;-79
2022/11/19 07:56:35;;;;;;;22.00;13.93;;;;;;;;;;4998119;28;20191;-79
2022/11/19 07:59:01;;;;;;;22.47;13.63;;;;;;;;;;5019791;28;20171;-79
2022/11/19 08:01:26;;;;;;;23.40;14.30;;;;;;;;;;4995431;28;20237;-79
2022/11/19 08:03:52;;;;;;;27.60;15.43;;;;;;;;;;5015276;28;20211;-79
2022/11/19 08:06:17;;;;;;;27.60;14.87;;;;;;;;;;4999763;28;20203;-79
2022/11/19 08:08:43;;;;;;;23.83;14.47;;;;;;;;;;5003403;28;20690;-79
2022/11/19 08:11:09;;;;;;;21.27;13.97;;;;;;;;;;5009241;28;20179;-79
2022/11/19 08:13:35;;;;;;;25.47;15.47;;;;;;;;;;5016103;28;20310;-79
2022/11/19 08:16:01;;;;;;;23.70;13.50;;;;;;;;;;5016562;28;20716;-79
2022/11/19 08:18:26;;;;;;;25.63;14.37;;;;;;;;;;4992150;28;20194;-79
2022/11/19 08:20:52;;;;;;;22.13;14.03;;;;;;;;;;5014245;28;20174;-79
2022/11/19 08:23:17;;;;;;;24.00;14.60;;;;;;;;;;5009697;28;20187;-79
2022/11/19 08:25:43;;;;;;;25.93;15.83;;;;;;;;;;5007794;28;20203;-78
2022/11/19 08:28:08;;;;;;;22.97;13.13;;;;;;;;;;4997311;28;20278;-79
2022/11/19 08:30:33;;;;;;;22.03;13.33;;;;;;;;;;5015238;28;20202;-79
2022/11/19 08:32:59;;;;;;;23.07;13.90;;;;;;;;;;4994921;28;20250;-79
2022/11/19 08:35:24;;;;;;;22.30;13.27;;;;;;;;;;5006430;28;20184;-79
2022/11/19 08:37:50;;;;;;;25.80;14.47;;;;;;;;;;5014629;28;20202;-78
2022/11/19 08:40:16;;;;;;;20.73;13.10;;;;;;;;;;5013304;28;20663;-79
2022/11/19 08:42:59;;;;;;;24.77;14.30;;;;;;;;;;5011011;28;20179;-78
2022/11/19 08:45:25;;;;;;;24.93;14.47;;;;;;;;;;5012026;28;20202;-79
2022/11/19 08:47:51;;;;;;;25.33;14.17;;;;;;;;;;4996235;28;20183;-78
2022/11/19 08:50:16;;;;;;;25.03;14.07;;;;;;;;;;4995031;28;20190;-79
2022/11/19 08:52:41;;;;;;;24.10;14.93;;;;;;;;;;5009653;28;20168;-79
2022/11/19 08:55:07;;;;;;;22.77;14.63;;;;;;;;;;4993576;28;20248;-79
2022/11/19 08:57:32;;;;;;;24.40;13.80;;;;;;;;;;4996034;28;20206;-78
2022/11/19 08:59:57;;;;;;;23.93;14.17;;;;;;;;;;4997770;28;20186;-79
2022/11/19 09:02:22;;;;;;;21.87;13.93;;;;;;;;;;5013953;28;20183;-79
2022/11/19 09:04:48;;;;;;;20.90;13.23;;;;;;;;;;4996372;28;20195;-78
2022/11/19 09:07:13;;;;;;;24.30;13.37;;;;;;;;;;4998391;28;20196;-79
2022/11/19 09:09:38;;;;;;;20.43;12.70;;;;;;;;;;5011004;28;20281;-79
2022/11/19 09:12:03;;;;;;;23.23;13.30;;;;;;;;;;4998890;28;20176;-79
2022/11/19 09:14:28;;;;;;;24.37;14.27;;;;;;;;;;5012316;28;20186;-79
2022/11/19 09:16:54;;;;;;;22.27;14.63;;;;;;;;;;4993344;28;20215;-79
2022/11/19 09:19:20;;;;;;;24.10;13.83;;;;;;;;;;5011842;28;20630;-79
2022/11/19 09:21:45;;;;;;;22.30;13.70;;;;;;;;;;5011463;28;20229;-79
2022/11/19 09:24:10;;;;;;;29.00;15.53;;;;;;;;;;4994094;28;20185;-78
2022/11/19 09:26:35;;;;;;;22.00;13.47;;;;;;;;;;5013258;28;20570;-79
2022/11/19 09:29:01;;;;;;;27.07;15.13;;;;;;;;;;5001097;28;20210;-78
2022/11/19 09:31:26;;;;;;;21.20;13.67;;;;;;;;;;4993011;28;20187;-79
2022/11/19 09:33:52;;;;;;;25.07;15.17;;;;;;;;;;5008557;28;20178;-78
2022/11/19 09:36:18;;;;;;;22.03;13.63;;;;;;;;;;5013103;28;20317;-78
2022/11/19 09:38:44;;;;;;;22.03;13.10;;;;;;;;;;4994405;28;20202;-79
2022/11/19 09:41:28;;;;;;;23.73;14.00;;;;;;;;;;5013161;28;20665;-78
2022/11/19 09:44:05;;;;;;;25.37;13.60;;;;;;;;;;5013771;28;20269;-78
2022/11/19 09:46:34;;;;;;;22.23;13.07;;;;;;;;;;4995339;28;20202;-79
2022/11/19 09:49:02;;;;;;;21.83;13.87;;;;;;;;;;5013128;28;20305;-78
2022/11/19 09:51:29;;;;;;;21.80;11.93;;;;;;;;;;4982112;28;20176;-78
2022/11/19 09:53:54;;;;;;;24.47;13.90;;;;;;;;;;4991906;28;20191;-79
2022/11/19 09:56:31;;;;;;;23.47;13.37;;;;;;;;;;4992262;28;20209;-78
2022/11/19 09:58:57;;;;;;;24.23;14.13;;;;;;;;;;5012736;28;20571;-77
2022/11/19 10:01:24;;;;;;;20.53;12.73;;;;;;;;;;5010470;28;20605;-79
2022/11/19 10:03:51;;;;;;;22.53;12.83;;;;;;;;;;4992106;28;20716;-78
2022/11/19 10:06:29;;;;;;;20.03;13.77;;;;;;;;;;5010694;28;20214;-79
2022/11/19 10:08:54;;;;;;;23.53;13.23;;;;;;;;;;5008087;28;20175;-79
2022/11/19 10:11:27;;;;;;;23.97;13.53;;;;;;;;;;5009986;28;20270;-78
2022/11/19 10:13:53;;;;;;;20.50;12.57;;;;;;;;;;5009318;28;20648;-78
2022/11/19 10:16:30;;;;;;;24.20;13.13;;;;;;;;;;5011858;28;20198;-79
2022/11/19 10:19:04;;;;;;;21.10;13.43;;;;;;;;;;5007866;28;20266;-78
2022/11/19 10:21:58;;;;;;;24.90;14.20;;;;;;;;;;5010949;28;20233;-79
2022/11/19 10:24:37;;;;;;;21.43;13.00;;;;;;;;;;4973698;28;20695;-79
2022/11/19 10:27:11;;;;;;;18.27;12.30;;;;;;;;;;5014058;28;20305;-79
2022/11/19 10:29:37;;;;;;;22.23;12.40;;;;;;;;;;5010990;28;20210;-77
2022/11/19 10:32:21;;;;;;;20.80;12.13;;;;;;;;;;5011945;28;20183;-78
2022/11/19 10:34:48;;;;;;;19.80;12.03;;;;;;;;;;4999639;28;20211;-78
2022/11/19 10:37:15;;;;;;;19.50;11.93;;;;;;;;;;5011940;28;20195;-78
2022/11/19 10:39:42;;;;;;;19.10;12.53;;;;;;;;;;4990956;28;20294;-78
2022/11/19 10:42:17;;;;;;;17.80;12.30;;;;;;;;;;5008182;28;20191;-79
2022/11/19 10:44:45;;;;;;;20.80;12.17;;;;;;;;;;4996416;28;20210;-79
2022/11/19 10:47:16;;;;;;;19.73;11.50;;;;;;;;;;5012655;28;20203;-79
2022/11/19 10:49:42;;;;;;;17.07;12.37;;;;;;;;;;5008412;28;20259;-79
2022/11/19 10:52:13;;;;;;;20.23;12.23;;;;;;;;;;5010320;28;20201;-78
2022/11/19 10:54:39;;;;;;;18.33;11.00;;;;;;;;;;5012640;28;20190;-78
2022/11/19 10:57:06;;;;;;;17.67;11.67;;;;;;;;;;5010747;28;20214;-78
2022/11/19 10:59:31;;;;;;;19.90;11.70;;;;;;;;;;5017060;28;20217;-78
2022/11/19 11:02:15;;;;;;;20.60;11.60;;;;;;;;;;5014711;28;20514;-79
2022/11/19 11:04:58;;;;;;;16.40;11.00;;;;;;;;;;5000476;28;20203;-79
2022/11/19 11:07:42;;;;;;;17.47;10.93;;;;;;;;;;5010196;28;20225;-78
2022/11/19 11:10:23;;;;;;;17.80;10.30;;;;;;;;;;4992503;28;20280;-79
2022/11/19 11:15:33;;;;;;;17.77;10.03;;;;;;;;;;5008216;28;20190;-78
2022/11/19 11:18:02;;;;;;;14.77;10.40;;;;;;;;;;4989938;28;20183;-80
2022/11/19 11:20:28;;;;;;;15.43;10.27;;;;;;;;;;5013959;28;20237;-80
2022/11/19 11:23:16;;;;;;;15.77;10.27;;;;;;;;;;5010752;28;20186;-80
2022/11/19 11:26:00;;;;;;;15.93;10.27;;;;;;;;;;5005171;28;20354;-79
2022/11/19 11:28:26;;;;;;;16.53;10.57;;;;;;;;;;5011691;28;20167;-80
2022/11/19 11:30:53;;;;;;;15.10;9.80;;;;;;;;;;4999144;28;20186;-79
2022/11/19 11:33:26;;;;;;;14.23;9.37;;;;;;;;;;5024338;28;20166;-80
2022/11/19 11:35:55;;;;;;;14.73;10.10;;;;;;;;;;4996115;28;20241;-80
2022/11/19 11:38:22;;;;;;;15.37;9.90;;;;;;;;;;5012742;28;20253;-80
2022/11/19 11:40:57;;;;;;;14.77;9.23;;;;;;;;;;4996223;28;20732;-79
2022/11/19 11:43:22;;;;;;;17.90;9.50;;;;;;;;;;5014035;28;20178;-78
2022/11/19 11:45:54;;;;;;;14.30;9.73;;;;;;;;;;4993671;28;20559;-78
2022/11/19 11:48:20;;;;;;;14.40;9.33;;;;;;;;;;4989087;28;20185;-78
2022/11/19 11:50:45;;;;;;;13.10;9.10;;;;;;;;;;4995258;28;20175;-79
2022/11/19 11:53:15;;;;;;;14.23;9.37;;;;;;;;;;5006804;28;20527;-78
2022/11/19 11:55:41;;;;;;;13.60;9.20;;;;;;;;;;5015174;28;20171;-78
2022/11/19 11:58:42;;;;;;;14.93;10.00;;;;;;;;;;5011963;28;20791;-79
2022/11/19 12:01:14;;;;;;;13.40;8.87;;;;;;;;;;4937318;29;20199;-78
2022/11/19 12:03:51;;;;;;;13.13;9.07;;;;;;;;;;4998960;28;20684;-78
2022/11/19 12:06:17;;;;;;;16.20;10.80;;;;;;;;;;5013133;28;20210;-78
2022/11/19 12:09:01;;;;;;;14.20;9.80;;;;;;;;;;5002796;28;20258;-78
2022/11/19 12:11:52;;;;;;;14.77;10.13;;;;;;;;;;5010042;28;20181;-78
2022/11/19 12:14:17;;;;;;;15.57;9.70;;;;;;;;;;5009521;28;20179;-78
2022/11/19 12:16:55;;;;;;;16.17;10.07;;;;;;;;;;5007101;28;20198;-78
2022/11/19 12:19:20;;;;;;;13.53;9.07;;;;;;;;;;4997277;28;20201;-78
2022/11/19 12:21:54;;;;;;;12.17;8.53;;;;;;;;;;4995343;28;20652;-78
2022/11/19 12:24:34;;;;;;;14.57;9.27;;;;;;;;;;5000709;28;20174;-78
2022/11/19 12:27:08;;;;;;;12.67;8.30;;;;;;;;;;5003107;28;20206;-78
2022/11/19 12:29:45;;;;;;;12.70;8.10;;;;;;;;;;5005252;28;20241;-78
2022/11/19 12:32:27;;;;;;;12.83;8.70;;;;;;;;;;5001306;28;20326;-79
2022/11/19 12:35:03;;;;;;;14.47;8.83;;;;;;;;;;4989968;28;20183;-78
2022/11/19 12:37:37;;;;;;;12.73;8.57;;;;;;;;;;4989395;28;20685;-79
2022/11/19 12:40:10;;;;;;;13.53;8.20;;;;;;;;;;5004517;28;20178;-78
2022/11/19 12:42:35;;;;;;;10.53;7.27;;;;;;;;;;4999357;28;20190;-79
2022/11/19 12:45:16;;;;;;;13.67;8.87;;;;;;;;;;5006845;28;20199;-78
2022/11/19 12:47:44;;;;;;;12.27;7.97;;;;;;;;;;5018713;28;20285;-79
2022/11/19 12:50:28;;;;;;;12.40;8.33;;;;;;;;;;4999489;28;20213;-78
2022/11/19 12:53:11;;;;;;;12.90;8.33;;;;;;;;;;5008410;28;20181;-80
2022/11/19 12:55:43;;;;;;;16.63;8.63;;;;;;;;;;4994337;28;20190;-76
2022/11/19 12:58:08;;;;;;;11.47;8.23;;;;;;;;;;5009152;28;20268;-77
2022/11/19 13:00:35;;;;;;;11.60;7.83;;;;;;;;;;5011577;28;20217;-78
2022/11/19 13:03:11;;;;;;;12.17;8.40;;;;;;;;;;5011146;28;20262;-78
2022/11/19 13:05:55;;;;;;;11.33;7.53;;;;;;;;;;5005371;28;20468;-78
2022/11/19 13:08:20;;;;;;;11.17;7.63;;;;;;;;;;5012751;28;20167;-78
2022/11/19 13:10:51;;;;;;;11.47;7.87;;;;;;;;;;5007824;28;20229;-78
2022/11/19 13:13:19;;;;;;;11.67;8.23;;;;;;;;;;5012407;28;20182;-78
2022/11/19 13:15:48;;;;;;;12.03;8.67;;;;;;;;;;4989738;28;20638;-78
2022/11/19 13:18:15;;;;;;;12.10;8.13;;;;;;;;;;5012554;28;20269;-78
2022/11/19 13:20:49;;;;;;;12.33;7.87;;;;;;;;;;4994755;28;20183;-78
2022/11/19 13:23:29;;;;;;;12.27;7.70;;;;;;;;;;4994837;28;20183;-78
2022/11/19 13:25:59;;;;;;;11.60;7.87;;;;;;;;;;4991667;28;20216;-78
2022/11/19 13:28:28;;;;;;;11.00;7.57;;;;;;;;;;4994902;28;20190;-78
2022/11/19 13:30:57;;;;;;;12.00;7.50;;;;;;;;;;4989522;28;20182;-80
2022/11/19 13:33:29;;;;;;;12.73;7.73;;;;;;;;;;4992771;28;20262;-79
2022/11/19 13:35:59;;;;;;;10.70;7.57;;;;;;;;;;5011715;28;20198;-79
2022/11/19 13:38:30;;;;;;;12.20;7.97;;;;;;;;;;5011308;28;20190;-80
2022/11/19 13:41:14;;;;;;;11.67;8.13;;;;;;;;;;5000457;28;20190;-80
2022/11/19 13:46:26;;;;;;;12.97;7.57;;;;;;;;;;5010386;28;20758;-79
2022/11/19 13:49:00;;;;;;;11.10;7.70;;;;;;;;;;5012226;28;20258;-79
2022/11/19 13:51:32;;;;;;;12.10;7.60;;;;;;;;;;5008967;28;20171;-79
2022/11/19 13:53:58;;;;;;;12.03;7.70;;;;;;;;;;5008536;28;20236;-79
2022/11/19 13:56:35;;;;;;;11.20;7.53;;;;;;;;;;5011331;28;20225;-79
2022/11/19 13:59:01;;;;;;;9.57;6.73;;;;;;;;;;5002929;28;20691;-79
2022/11/19 14:01:29;;;;;;;11.40;6.93;;;;;;;;;;5012187;28;20183;-79
2022/11/19 14:03:57;;;;;;;11.13;6.97;;;;;;;;;;4995115;28;20179;-79
2022/11/19 14:06:25;;;;;;;8.77;6.07;;;;;;;;;;5008668;28;20207;-79
2022/11/19 14:09:02;;;;;;;10.17;6.80;;;;;;;;;;4999745;28;20537;-79
2022/11/19 14:11:27;;;;;;;12.07;7.40;;;;;;;;;;4996416;28;20194;-79
2022/11/19 14:28:47;;;;;;;10.13;6.70;;;;;;;;;;4943314;29;20213;-79
2022/11/19 14:31:13;;;;;;;10.47;6.33;;;;;;;;;;4935326;29;20188;-78
2022/11/19 14:33:47;;;;;;;9.10;6.40;;;;;;;;;;4980231;28;20190;-78
2022/11/19 14:36:20;;;;;;;9.57;6.13;;;;;;;;;;5017232;28;20276;-78
2022/11/19 14:38:52;;;;;;;16.43;7.27;;;;;;;;;;5022488;28;20306;-78
2022/11/19 14:41:21;;;;;;;9.63;6.20;;;;;;;;;;5019517;28;20179;-78
2022/11/19 14:44:08;;;;;;;12.50;6.23;;;;;;;;;;5021829;28;20278;-79
2022/11/19 14:46:37;;;;;;;10.00;6.00;;;;;;;;;;5021199;28;20213;-78
2022/11/19 14:49:04;;;;;;;10.10;6.30;;;;;;;;;;5011374;28;20558;-79
2022/11/19 14:51:34;;;;;;;10.33;6.83;;;;;;;;;;5017170;28;20202;-78
2022/11/19 14:54:02;;;;;;;9.07;6.00;;;;;;;;;;5013544;28;20255;-78
2022/11/19 14:56:27;;;;;;;10.23;6.53;;;;;;;;;;4998036;28;20310;-78
2022/11/19 14:59:11;;;;;;;10.50;6.03;;;;;;;;;;5015989;28;20575;-78
2022/11/19 15:01:52;;;;;;;9.80;6.23;;;;;;;;;;4997971;28;21258;-78